Time;durP1;ratioP1;P1;durP2;ratioP2;P2;SDS_P1;SDS_P2;PMS_P1;PMS_P2;Temp;Humidity;BMP_temperature;BMP_pressure;BME280_temperature;BME280_humidity;BME280_pressure;Samples;Min_cycle;Max_cycle;Signal;HPM_P1;HPM_P2
2022/06/18 00:01:34;;;;;;;5.05;3.95;;;21.70;93.50;;;;;;5108391;27;20166;-83
2022/06/18 00:04:11;;;;;;;;;;;21.70;93.30;;;;;;5110598;27;20060;-83
2022/06/18 00:06:41;;;;;;;8.30;3.85;;;21.60;93.60;;;;;;5128183;27;20006;-83
2022/06/18 00:09:11;;;;;;;9.05;4.32;;;21.50;93.30;;;;;;5108796;27;20028;-83
2022/06/18 00:14:21;;;;;;;5.03;4.38;;;21.50;93.40;;;;;;5108304;27;20043;-83
2022/06/18 00:16:47;;;;;;;7.10;3.90;;;21.50;93.40;;;;;;5108972;27;20041;-83
2022/06/18 00:19:13;;;;;;;8.18;4.20;;;21.50;93.50;;;;;;5090891;27;20034;-83
2022/06/18 00:21:38;;;;;;;6.15;4.07;;;21.50;93.60;;;;;;5093593;27;20046;-83
2022/06/18 00:24:16;;;;;;;6.93;4.10;;;21.40;93.70;;;;;;5093116;27;20035;-83
2022/06/18 00:26:42;;;;;;;4.95;4.05;;;21.50;93.80;;;;;;5102327;27;20039;-84
2022/06/18 00:29:17;;;;;;;7.43;3.83;;;21.40;93.80;;;;;;5090745;27;20160;-83
2022/06/18 00:31:43;;;;;;;;;;;21.40;93.80;;;;;;5092799;27;20043;-83
2022/06/18 00:34:09;;;;;;;6.22;4.10;;;21.30;93.70;;;;;;5108060;27;19979;-83
2022/06/18 00:36:38;;;;;;;8.98;3.92;;;21.30;94.00;;;;;;5093762;28;20028;-83
2022/06/18 00:39:04;;;;;;;8.20;4.03;;;21.30;94.00;;;;;;5107272;28;20074;-82
2022/06/18 00:41:32;;;;;;;8.43;3.80;;;21.30;94.00;;;;;;5072837;28;20047;-83
2022/06/18 00:44:02;;;;;;;8.57;4.15;;;21.40;94.10;;;;;;5109798;28;20023;-84
2022/06/18 00:46:33;;;;;;;6.25;3.83;;;21.30;94.10;;;;;;5109051;28;20483;-83
2022/06/18 00:49:06;;;;;;;9.45;5.00;;;21.40;94.10;;;;;;5092871;27;20533;-83
2022/06/18 00:51:42;;;;;;;6.70;3.88;;;21.40;94.20;;;;;;5094338;27;20451;-83
2022/06/18 00:54:35;;;;;;;7.03;4.18;;;21.30;94.20;;;;;;5092834;27;20047;-83
2022/06/18 00:57:14;;;;;;;7.65;4.93;;;21.30;94.20;;;;;;5087177;27;20051;-83
2022/06/18 00:59:48;;;;;;;8.68;4.65;;;21.30;94.30;;;;;;5095260;27;20059;-84
2022/06/18 01:02:20;;;;;;;5.40;4.70;;;21.30;94.40;;;;;;5112229;27;20125;-84
2022/06/18 01:04:47;;;;;;;7.80;4.55;;;21.30;94.40;;;;;;5129247;27;20533;-84
2022/06/18 01:07:17;;;;;;;8.00;4.80;;;21.30;94.50;;;;;;5112499;27;20122;-83
2022/06/18 01:09:47;;;;;;;7.72;5.20;;;21.30;94.50;;;;;;5093936;27;20035;-83
2022/06/18 01:12:13;;;;;;;8.85;5.28;;;21.30;94.60;;;;;;5111816;27;20043;-83
2022/06/18 01:14:39;;;;;;;7.35;4.63;;;21.30;94.60;;;;;;5111502;27;20055;-83
2022/06/18 01:17:06;;;;;;;7.72;5.68;;;21.20;94.90;;;;;;5112676;27;20168;-83
2022/06/18 01:19:42;;;;;;;5.93;5.15;;;21.20;95.00;;;;;;5112595;27;20050;-83
2022/06/18 01:22:52;;;;;;;7.32;5.13;;;21.20;95.00;;;;;;5128555;27;20119;-83
2022/06/18 01:25:18;;;;;;;7.70;5.80;;;21.20;95.10;;;;;;5114437;27;20035;-83
2022/06/18 01:27:44;;;;;;;7.28;5.47;;;21.20;95.00;;;;;;5075679;27;20419;-83
2022/06/18 01:30:17;;;;;;;7.40;6.03;;;21.20;95.10;;;;;;5111828;27;20066;-83
2022/06/18 01:32:45;;;;;;;6.13;5.53;;;21.20;95.10;;;;;;5110915;27;20107;-83
2022/06/18 01:35:11;;;;;;;9.23;5.70;;;21.20;95.10;;;;;;5109631;27;20035;-83
2022/06/18 01:37:38;;;;;;;9.40;6.00;;;21.20;95.10;;;;;;5073154;27;20402;-83
2022/06/18 01:40:05;;;;;;;8.52;5.97;;;21.20;95.20;;;;;;5073335;27;20102;-83
2022/06/18 01:42:42;;;;;;;8.55;6.15;;;21.20;95.40;;;;;;5094893;27;20058;-83
2022/06/18 01:45:12;;;;;;;9.30;5.53;;;21.10;95.40;;;;;;5112395;27;20047;-83
2022/06/18 01:47:53;;;;;;;9.05;6.38;;;21.10;95.50;;;;;;5110523;27;20114;-83
2022/06/18 01:50:26;;;;;;;8.73;6.30;;;21.00;95.60;;;;;;5084813;27;20031;-82
2022/06/18 01:53:00;;;;;;;8.00;6.35;;;21.00;95.70;;;;;;5085080;27;20036;-83
2022/06/18 01:55:32;;;;;;;7.78;6.20;;;21.00;95.90;;;;;;5110101;27;20036;-83
2022/06/18 01:58:06;;;;;;;9.23;6.53;;;21.00;96.20;;;;;;5083218;27;20697;-84
2022/06/18 02:00:33;;;;;;;8.38;6.22;;;20.90;96.00;;;;;;5108850;27;20050;-83
2022/06/18 02:03:00;;;;;;;8.90;6.80;;;20.80;96.10;;;;;;5093885;27;20068;-83
2022/06/18 02:05:26;;;;;;;9.25;6.82;;;20.80;96.20;;;;;;5111156;27;20105;-83
2022/06/18 02:07:52;;;;;;;8.60;6.93;;;20.80;96.60;;;;;;5080249;27;20035;-83
2022/06/18 02:10:27;;;;;;;9.05;6.72;;;20.80;96.50;;;;;;5109244;27;20502;-84
2022/06/18 02:12:56;;;;;;;11.63;7.30;;;20.70;96.60;;;;;;5109146;27;20073;-83
2022/06/18 02:15:26;;;;;;;7.75;6.82;;;20.70;96.70;;;;;;5124784;27;20063;-83
2022/06/18 02:17:52;;;;;;;8.35;7.05;;;20.70;96.80;;;;;;5092030;27;20511;-84
2022/06/18 02:20:21;;;;;;;8.25;6.50;;;20.70;97.10;;;;;;5107921;27;20063;-83
2022/06/18 02:22:50;;;;;;;11.07;7.65;;;20.60;97.20;;;;;;5106668;27;20027;-84
2022/06/18 02:25:20;;;;;;;11.00;7.63;;;20.60;97.20;;;;;;5108882;27;20356;-83
2022/06/18 02:27:47;;;;;;;10.25;7.03;;;20.60;97.40;;;;;;5104966;27;20055;-83
2022/06/18 02:30:21;;;;;;;10.13;7.68;;;20.50;97.40;;;;;;5089576;27;20553;-83
2022/06/18 02:33:01;;;;;;;8.48;7.20;;;20.50;97.60;;;;;;5090002;27;20107;-82
2022/06/18 02:35:30;;;;;;;10.45;8.15;;;20.50;97.70;;;;;;5108252;27;20031;-83
2022/06/18 02:37:56;;;;;;;9.00;7.13;;;20.50;97.90;;;;;;5087990;27;20040;-83
2022/06/18 02:40:25;;;;;;;11.40;7.43;;;20.40;97.90;;;;;;5106546;27;20038;-83
2022/06/18 02:42:54;;;;;;;9.30;7.22;;;20.40;98.10;;;;;;5110100;27;20042;-83
2022/06/18 02:45:21;;;;;;;10.65;7.47;;;20.40;98.20;;;;;;5108895;27;20108;-83
2022/06/18 02:47:48;;;;;;;14.13;8.13;;;20.30;98.30;;;;;;5109662;27;20035;-83
2022/06/18 02:50:16;;;;;;;11.02;7.47;;;20.40;98.60;;;;;;5092350;27;20072;-83
2022/06/18 02:52:49;;;;;;;8.88;7.57;;;20.30;98.70;;;;;;5108185;27;20054;-83
2022/06/18 02:55:38;;;;;;;12.10;7.50;;;20.20;98.80;;;;;;5094776;27;20421;-84
2022/06/18 02:58:10;;;;;;;9.23;8.07;;;20.20;98.90;;;;;;5113412;27;20032;-83
2022/06/18 03:00:37;;;;;;;11.45;8.18;;;20.10;99.30;;;;;;5115654;27;20043;-83
2022/06/18 03:03:09;;;;;;;11.55;8.23;;;20.00;99.60;;;;;;5124364;27;20103;-84
2022/06/18 03:05:35;;;;;;;11.52;8.32;;;20.00;99.80;;;;;;5111490;27;20039;-83
2022/06/18 03:08:00;;;;;;;12.55;8.98;;;20.00;99.90;;;;;;5117121;27;20047;-83
2022/06/18 03:13:11;;;;;;;11.48;8.38;;;19.90;99.90;;;;;;5094636;27;20402;-83
2022/06/18 03:15:37;;;;;;;11.18;8.13;;;19.90;99.90;;;;;;5110686;27;20114;-83
2022/06/18 03:18:04;;;;;;;10.93;7.53;;;19.90;99.90;;;;;;5095634;27;20039;-83
2022/06/18 03:20:54;;;;;;;11.77;8.25;;;19.90;99.90;;;;;;5094069;27;20039;-84
2022/06/18 03:23:23;;;;;;;10.27;8.15;;;19.90;99.90;;;;;;5089514;27;20027;-83
2022/06/18 03:25:49;;;;;;;12.90;7.68;;;19.90;99.90;;;;;;5091522;27;20038;-83
2022/06/18 03:28:17;;;;;;;11.82;8.57;;;19.90;99.90;;;;;;5104535;28;21111;-84
2022/06/18 03:30:42;;;;;;;14.05;7.68;;;19.90;99.90;;;;;;5104928;28;20507;-83
2022/06/18 03:33:09;;;;;;;11.13;7.57;;;19.90;99.90;;;;;;5090188;28;20040;-82
2022/06/18 03:35:36;;;;;;;11.88;8.57;;;19.80;99.90;;;;;;5105242;28;20044;-84
2022/06/18 03:38:02;;;;;;;11.00;7.78;;;19.80;99.90;;;;;;5085316;28;20434;-84
2022/06/18 03:40:28;;;;;;;12.50;8.10;;;19.80;99.90;;;;;;5089663;28;20032;-84
2022/06/18 03:42:54;;;;;;;15.82;7.60;;;19.80;99.90;;;;;;5087497;28;20035;-84
2022/06/18 03:45:20;;;;;;;11.95;8.40;;;19.80;99.90;;;;;;5089118;28;20073;-84
2022/06/18 03:47:47;;;;;;;11.80;7.90;;;19.80;99.90;;;;;;5104391;28;20051;-83
2022/06/18 03:50:18;;;;;;;15.75;8.93;;;19.80;99.90;;;;;;5089741;28;20521;-84
2022/06/18 03:52:44;;;;;;;12.98;8.65;;;19.80;99.90;;;;;;5101661;28;20032;-84
2022/06/18 03:55:15;;;;;;;10.68;8.60;;;19.80;99.90;;;;;;5088497;28;20048;-84
2022/06/18 03:57:41;;;;;;;14.57;8.68;;;19.90;99.90;;;;;;5105099;28;20039;-84
2022/06/18 04:00:14;;;;;;;12.95;8.77;;;19.80;99.90;;;;;;5068932;28;20040;-84
2022/06/18 04:02:40;;;;;;;14.93;8.90;;;19.90;99.90;;;;;;5086207;28;20036;-83
2022/06/18 04:05:08;;;;;;;13.45;8.20;;;19.90;99.90;;;;;;5106835;28;20035;-84
2022/06/18 04:07:33;;;;;;;15.90;8.57;;;19.90;99.90;;;;;;5087305;28;20399;-84
2022/06/18 04:10:01;;;;;;;15.38;7.70;;;19.90;99.90;;;;;;5079058;28;20031;-84
2022/06/18 04:12:28;;;;;;;17.02;8.68;;;19.90;99.90;;;;;;5120164;27;20777;-84
2022/06/18 04:14:54;;;;;;;18.67;8.30;;;19.90;99.90;;;;;;5084867;28;20097;-84
2022/06/18 04:17:21;;;;;;;14.57;9.23;;;19.90;99.90;;;;;;5109200;28;20459;-84
2022/06/18 04:19:46;;;;;;;16.13;8.50;;;20.00;99.90;;;;;;5089863;28;20043;-84
2022/06/18 04:22:13;;;;;;;13.23;8.50;;;19.90;99.90;;;;;;5106695;28;20614;-84
2022/06/18 04:24:39;;;;;;;17.27;8.93;;;19.90;99.90;;;;;;5106080;28;20040;-84
2022/06/18 04:27:04;;;;;;;18.02;8.75;;;19.90;99.90;;;;;;5088233;28;20052;-83
2022/06/18 04:29:32;;;;;;;17.05;9.00;;;19.90;99.90;;;;;;5103792;28;20040;-84
2022/06/18 04:31:59;;;;;;;14.27;9.13;;;19.90;99.90;;;;;;5102811;28;20036;-84
2022/06/18 04:34:25;;;;;;;13.52;8.15;;;19.80;99.90;;;;;;5103827;28;20047;-84
2022/06/18 04:36:51;;;;;;;15.75;9.30;;;19.80;99.90;;;;;;5089882;28;20383;-84
2022/06/18 04:39:17;;;;;;;20.10;9.45;;;19.90;99.90;;;;;;5105478;28;20043;-84
2022/06/18 04:41:43;;;;;;;15.70;9.73;;;19.80;99.90;;;;;;5104478;28;20047;-83
2022/06/18 04:44:08;;;;;;;19.17;9.32;;;19.80;99.90;;;;;;5088192;28;20031;-84
2022/06/18 04:46:34;;;;;;;19.00;9.55;;;19.80;99.90;;;;;;5068440;28;20032;-84
2022/06/18 04:49:00;;;;;;;19.38;10.30;;;19.80;99.90;;;;;;5105907;28;20047;-84
2022/06/18 04:51:26;;;;;;;16.58;8.82;;;19.80;99.90;;;;;;5107146;28;20039;-84
2022/06/18 04:53:52;;;;;;;18.83;9.68;;;19.80;99.90;;;;;;5088224;28;20048;-84
2022/06/18 04:56:18;;;;;;;15.80;9.02;;;19.80;99.90;;;;;;5089745;28;20376;-84
2022/06/18 04:58:44;;;;;;;15.75;9.60;;;19.90;99.90;;;;;;5106048;28;20099;-84
2022/06/18 05:01:18;;;;;;;21.05;11.88;;;19.90;99.90;;;;;;5071008;28;20119;-84
2022/06/18 05:03:44;;;;;;;18.65;10.13;;;19.90;99.90;;;;;;5104987;28;20063;-84
2022/06/18 05:06:10;;;;;;;21.00;10.57;;;19.90;99.90;;;;;;5089684;28;20032;-84
2022/06/18 05:08:36;;;;;;;16.05;10.30;;;19.90;99.90;;;;;;5088319;28;20032;-84
2022/06/18 05:11:02;;;;;;;20.50;10.57;;;19.80;99.90;;;;;;5107087;28;20051;-84
2022/06/18 05:13:29;;;;;;;19.13;10.48;;;19.90;99.90;;;;;;5088515;28;20502;-84
2022/06/18 05:15:57;;;;;;;23.15;11.57;;;19.90;99.90;;;;;;5107134;28;20075;-84
2022/06/18 05:18:27;;;;;;;20.70;11.32;;;19.80;99.90;;;;;;5069413;28;20039;-84
2022/06/18 05:20:53;;;;;;;18.80;9.95;;;19.80;99.90;;;;;;5103631;28;20044;-84
2022/06/18 05:23:20;;;;;;;20.45;10.15;;;19.80;99.90;;;;;;5067782;28;20468;-84
2022/06/18 05:25:47;;;;;;;19.55;10.48;;;19.90;99.90;;;;;;5086784;28;20039;-84
2022/06/18 05:28:14;;;;;;;17.17;10.95;;;19.90;99.90;;;;;;5087278;28;20091;-84
2022/06/18 05:30:40;;;;;;;20.48;10.02;;;19.90;99.90;;;;;;5081909;28;20075;-84
2022/06/18 05:33:06;;;;;;;20.67;10.93;;;19.90;99.90;;;;;;5102622;28;20403;-84
2022/06/18 05:35:35;;;;;;;22.25;10.02;;;20.00;99.90;;;;;;5088368;28;20066;-84
2022/06/18 05:38:01;;;;;;;17.98;9.70;;;20.00;99.90;;;;;;5095252;28;20509;-84
2022/06/18 05:40:27;;;;;;;18.40;9.43;;;20.00;99.90;;;;;;5109432;28;20031;-84
2022/06/18 05:42:54;;;;;;;18.50;10.40;;;20.10;99.90;;;;;;5089340;28;20517;-83
2022/06/18 05:45:21;;;;;;;19.92;10.18;;;20.10;99.90;;;;;;5108529;28;20487;-84
2022/06/18 05:47:46;;;;;;;18.73;10.02;;;20.10;99.90;;;;;;5090699;28;20036;-84
2022/06/18 05:50:15;;;;;;;22.80;10.68;;;20.10;99.90;;;;;;5089368;28;20084;-84
2022/06/18 05:52:41;;;;;;;20.85;10.32;;;20.20;99.90;;;;;;5107733;28;20399;-84
2022/06/18 05:55:07;;;;;;;22.20;10.13;;;20.20;99.90;;;;;;5090392;28;20032;-84
2022/06/18 05:57:33;;;;;;;25.08;11.43;;;20.20;99.90;;;;;;5090265;28;20134;-84
2022/06/18 06:00:07;;;;;;;20.80;11.57;;;20.30;99.90;;;;;;5106693;28;20044;-84
2022/06/18 06:02:32;;;;;;;19.27;11.07;;;20.30;99.90;;;;;;5088482;28;21366;-84
2022/06/18 06:04:58;;;;;;;23.23;11.82;;;20.30;99.90;;;;;;5108427;28;20123;-84
2022/06/18 06:07:24;;;;;;;17.95;11.15;;;20.30;99.90;;;;;;5073100;28;20043;-84
2022/06/18 06:12:37;;;;;;;17.85;11.40;;;20.30;99.90;;;;;;5106673;28;20412;-83
2022/06/18 06:15:04;;;;;;;22.63;11.77;;;20.30;99.90;;;;;;5091632;28;20113;-83
2022/06/18 06:17:29;;;;;;;23.95;12.25;;;20.30;99.90;;;;;;5108428;28;20043;-84
2022/06/18 06:20:17;;;;;;;17.40;11.57;;;20.40;99.90;;;;;;5068750;28;20178;-83
2022/06/18 06:22:43;;;;;;;20.95;12.25;;;20.50;99.90;;;;;;5091115;28;20128;-83
2022/06/18 06:25:09;;;;;;;16.35;11.32;;;20.50;99.90;;;;;;5105970;28;20063;-83
2022/06/18 06:27:34;;;;;;;19.75;12.85;;;20.60;99.90;;;;;;5105369;28;20499;-83
2022/06/18 06:30:01;;;;;;;22.95;12.45;;;20.70;99.90;;;;;;5089742;28;20132;-84
2022/06/18 06:32:26;;;;;;;19.58;13.13;;;20.70;99.90;;;;;;5106142;28;20122;-83
2022/06/18 06:34:52;;;;;;;22.90;12.35;;;20.80;99.90;;;;;;5110021;28;20569;-83
2022/06/18 06:37:18;;;;;;;21.00;12.45;;;20.80;99.90;;;;;;5074914;28;20038;-83
2022/06/18 06:39:43;;;;;;;19.73;12.38;;;20.90;99.90;;;;;;5089721;28;20048;-84
2022/06/18 06:42:09;;;;;;;19.25;11.07;;;21.00;99.90;;;;;;5088327;28;20400;-84
2022/06/18 06:44:35;;;;;;;18.27;11.27;;;21.10;99.90;;;;;;5087271;28;20032;-84
2022/06/18 06:47:01;;;;;;;20.55;11.85;;;21.30;99.90;;;;;;5107035;28;20027;-84
2022/06/18 06:49:27;;;;;;;19.75;11.98;;;21.40;99.90;;;;;;5090112;28;20146;-83
2022/06/18 06:51:54;;;;;;;19.58;12.02;;;21.50;99.90;;;;;;5106707;28;20207;-83
2022/06/18 06:54:20;;;;;;;25.85;11.43;;;21.60;99.90;;;;;;5088833;28;20094;-83
2022/06/18 06:59:30;;;;;;;22.50;11.40;;;21.70;99.90;;;;;;5092133;28;21245;-82
2022/06/18 07:01:56;;;;;;;20.83;12.25;;;21.80;99.90;;;;;;5105879;28;20126;-82
2022/06/18 07:04:22;;;;;;;22.25;10.93;;;21.90;99.90;;;;;;5090942;28;20115;-83
2022/06/18 07:06:48;;;;;;;17.00;11.20;;;22.00;99.90;;;;;;5087759;28;20063;-82
2022/06/18 07:09:14;;;;;;;22.35;11.68;;;22.20;99.90;;;;;;5089954;28;20066;-83
2022/06/18 07:11:39;;;;;;;16.77;10.15;;;22.30;99.90;;;;;;5086183;28;20036;-83
2022/06/18 07:14:07;;;;;;;18.50;10.77;;;22.40;99.90;;;;;;5106907;28;20048;-81
2022/06/18 07:16:34;;;;;;;23.58;9.93;;;22.40;99.90;;;;;;5088903;28;20043;-81
2022/06/18 07:18:59;;;;;;;16.98;9.10;;;22.40;99.90;;;;;;5106140;28;20036;-81
2022/06/18 07:21:25;;;;;;;14.95;8.07;;;22.40;99.90;;;;;;5105585;28;21429;-81
2022/06/18 07:23:51;;;;;;;18.23;8.55;;;22.50;99.90;;;;;;5105600;28;20036;-81
2022/06/18 07:26:19;;;;;;;14.70;8.20;;;22.60;99.90;;;;;;5105678;28;20036;-83
2022/06/18 07:28:45;;;;;;;12.82;8.38;;;22.80;99.90;;;;;;5104988;28;20739;-82
2022/06/18 07:31:21;;;;;;;15.82;7.22;;;23.00;99.90;;;;;;5086723;28;20044;-82
2022/06/18 07:33:47;;;;;;;18.02;7.30;;;23.10;99.90;;;;;;5087645;28;20111;-83
2022/06/18 07:36:13;;;;;;;13.32;6.30;;;23.20;99.90;;;;;;5088042;28;20169;-83
2022/06/18 07:38:38;;;;;;;16.98;7.80;;;23.20;99.90;;;;;;5087915;28;20096;-84
2022/06/18 07:41:05;;;;;;;17.00;7.10;;;23.30;99.90;;;;;;5090355;28;20064;-83
2022/06/18 07:43:35;;;;;;;14.10;6.55;;;23.50;99.90;;;;;;5069797;28;20027;-83
2022/06/18 07:46:03;;;;;;;15.88;6.43;;;23.60;99.90;;;;;;5087627;28;20037;-83
2022/06/18 07:48:29;;;;;;;12.25;6.03;;;23.80;99.90;;;;;;5105851;28;20044;-83
2022/06/18 07:50:55;;;;;;;10.80;5.78;;;24.00;99.90;;;;;;5088250;28;20039;-82
2022/06/18 07:53:23;;;;;;;12.02;5.75;;;24.20;99.90;;;;;;5090208;28;20129;-82
2022/06/18 07:55:49;;;;;;;8.52;5.45;;;24.40;99.90;;;;;;5087372;28;20036;-82
2022/06/18 07:58:16;;;;;;;7.72;4.65;;;24.40;99.90;;;;;;5085794;28;20495;-82
2022/06/18 08:00:43;;;;;;;11.85;4.90;;;24.50;99.90;;;;;;5077990;28;20047;-82
2022/06/18 08:03:11;;;;;;;12.60;5.80;;;24.70;99.90;;;;;;5104887;28;20039;-83
2022/06/18 08:05:38;;;;;;;11.60;5.53;;;24.80;99.90;;;;;;5087253;28;20048;-83
2022/06/18 08:08:04;;;;;;;10.75;5.55;;;24.80;99.90;;;;;;5087300;28;20031;-83
2022/06/18 08:10:32;;;;;;;11.18;5.70;;;24.90;99.90;;;;;;5083721;28;20040;-82
2022/06/18 08:12:59;;;;;;;10.60;5.13;;;24.90;99.90;;;;;;5098218;28;20434;-82
2022/06/18 08:15:24;;;;;;;11.73;5.05;;;24.90;99.90;;;;;;5085105;28;20064;-83
2022/06/18 08:17:50;;;;;;;13.05;4.95;;;25.00;99.90;;;;;;5080031;28;20066;-85
2022/06/18 08:20:16;;;;;;;8.30;4.93;;;25.20;99.90;;;;;;5102798;28;20403;-83
2022/06/18 08:22:47;;;;;;;10.30;4.70;;;25.30;99.90;;;;;;5088526;28;20078;-84
2022/06/18 08:25:15;;;;;;;13.30;5.15;;;25.40;99.90;;;;;;5101807;28;20039;-83
2022/06/18 08:27:41;;;;;;;8.73;4.53;;;25.50;99.90;;;;;;5085362;28;20138;-83
2022/06/18 08:30:08;;;;;;;7.07;3.83;;;25.70;99.90;;;;;;5084664;28;20036;-83
2022/06/18 08:32:34;;;;;;;10.75;4.57;;;25.70;99.90;;;;;;5088062;28;20047;-83
2022/06/18 08:35:00;;;;;;;11.90;4.13;;;25.80;99.90;;;;;;5106802;28;20039;-83
2022/06/18 08:37:28;;;;;;;7.97;3.90;;;25.70;98.90;;;;;;5106221;28;20036;-83
2022/06/18 08:39:57;;;;;;;12.75;4.93;;;25.50;99.00;;;;;;5108384;28;20100;-83
2022/06/18 08:42:28;;;;;;;7.82;4.07;;;25.50;99.40;;;;;;5108828;28;20046;-84
2022/06/18 08:45:24;;;;;;;10.25;4.00;;;25.60;99.90;;;;;;5110653;28;20024;-83
2022/06/18 08:48:15;;;;;;;8.45;4.57;;;25.70;99.80;;;;;;5108456;28;20039;-83
2022/06/18 08:50:58;;;;;;;8.57;3.80;;;25.70;99.40;;;;;;5102389;28;20087;-85
2022/06/18 08:53:42;;;;;;;5.80;3.58;;;25.70;99.70;;;;;;5104328;28;20051;-84
2022/06/18 08:56:18;;;;;;;9.85;4.00;;;25.80;99.90;;;;;;5106468;28;20483;-84
2022/06/18 08:59:07;;;;;;;;;;;25.90;99.90;;;;;;5087954;28;20051;-85
2022/06/18 09:01:45;;;;;;;13.35;4.00;;;26.20;99.90;;;;;;5106028;28;19923;-83
2022/06/18 09:04:31;;;;;;;10.48;3.70;;;26.40;98.80;;;;;;5104450;28;20036;-84
2022/06/18 09:07:18;;;;;;;7.45;4.10;;;26.50;99.20;;;;;;5105656;28;20047;-84
2022/06/18 09:10:02;;;;;;;7.55;3.80;;;26.70;98.70;;;;;;5088464;28;20076;-84
2022/06/18 09:12:50;;;;;;;7.53;3.40;;;26.90;98.90;;;;;;5091466;28;20099;-83
2022/06/18 09:15:29;;;;;;;8.98;4.57;;;27.00;98.60;;;;;;5083758;28;20054;-83
2022/06/18 09:18:02;;;;;;;8.68;3.97;;;27.00;98.10;;;;;;5109600;28;20483;-84
2022/06/18 09:20:31;;;;;;;8.70;3.95;;;27.00;97.90;;;;;;5108229;28;20100;-83
2022/06/18 09:23:08;;;;;;;6.90;3.38;;;26.90;98.20;;;;;;5088893;28;20044;-83
2022/06/18 09:25:40;;;;;;;7.70;3.58;;;26.90;98.40;;;;;;5108269;28;22194;-83
2022/06/18 09:28:13;;;;;;;8.02;3.60;;;27.00;98.30;;;;;;5092424;28;20110;-84
2022/06/18 09:30:50;;;;;;;8.65;3.47;;;27.10;97.80;;;;;;5106437;28;20035;-83
2022/06/18 09:33:27;;;;;;;6.97;3.42;;;27.00;97.80;;;;;;5107478;28;20036;-83
2022/06/18 09:36:15;;;;;;;7.40;3.75;;;27.00;97.70;;;;;;5124370;27;20070;-83
2022/06/18 09:38:54;;;;;;;10.73;4.10;;;27.00;97.40;;;;;;5083314;28;20093;-83
2022/06/18 09:41:29;;;;;;;8.82;3.60;;;26.80;97.20;;;;;;5089602;28;20043;-84
2022/06/18 09:44:06;;;;;;;6.68;2.47;;;26.60;97.20;;;;;;5109278;28;20064;-83
2022/06/18 09:46:43;;;;;;;5.95;2.67;;;26.60;98.20;;;;;;5108497;27;20428;-83
2022/06/18 09:49:09;;;;;;;8.05;3.35;;;26.70;98.30;;;;;;5108520;28;20024;-82
2022/06/18 09:51:53;;;;;;;13.32;3.22;;;26.70;97.50;;;;;;5089448;28;20059;-83
2022/06/18 09:54:21;;;;;;;7.40;3.28;;;26.90;97.40;;;;;;5108268;28;20067;-83
2022/06/18 09:56:54;;;;;;;7.88;2.90;;;27.00;97.10;;;;;;5107882;28;20066;-83
2022/06/18 09:59:50;;;;;;;5.80;2.55;;;27.00;97.20;;;;;;5105511;28;20036;-83
2022/06/18 10:02:18;;;;;;;;;;;27.10;97.10;;;;;;5105329;28;20044;-84
2022/06/18 10:07:33;;;;;;;5.75;3.30;;;27.20;97.10;;;;;;5108664;28;20427;-84
2022/06/18 10:10:09;;;;;;;7.78;3.05;;;27.10;96.70;;;;;;5108148;28;20063;-84
2022/06/18 10:12:48;;;;;;;7.15;2.55;;;27.10;96.90;;;;;;5099411;28;20493;-85
2022/06/18 10:15:17;;;;;;;9.05;2.90;;;27.10;96.60;;;;;;5108591;28;20373;-83
2022/06/18 10:18:07;;;;;;;8.75;3.40;;;27.10;96.10;;;;;;5089085;28;20048;-84
2022/06/18 10:20:54;;;;;;;6.18;2.58;;;27.10;96.30;;;;;;5089310;28;20400;-84
2022/06/18 10:23:31;;;;;;;6.82;2.40;;;27.10;96.60;;;;;;5085548;28;20437;-83
2022/06/18 10:26:30;;;;;;;5.65;3.10;;;27.10;95.80;;;;;;5108669;28;20031;-84
2022/06/18 10:29:30;;;;;;;7.78;2.80;;;26.90;95.60;;;;;;5078430;27;20050;-83
2022/06/18 10:32:28;;;;;;;6.22;2.60;;;26.70;96.20;;;;;;5110702;27;20035;-83
2022/06/18 10:35:10;;;;;;;6.85;2.67;;;26.60;96.70;;;;;;5087091;27;20068;-82
2022/06/18 10:37:55;;;;;;;10.15;3.00;;;26.70;96.60;;;;;;5110395;27;20035;-84
2022/06/18 10:40:20;;;;;;;6.60;2.80;;;26.70;96.80;;;;;;5110705;27;20493;-84
2022/06/18 10:43:30;;;;;;;6.78;3.05;;;26.70;96.80;;;;;;5093531;27;20071;-83
2022/06/18 10:46:00;;;;;;;5.85;3.22;;;26.80;96.90;;;;;;5094357;27;20141;-83
2022/06/18 10:48:29;;;;;;;5.72;2.70;;;26.80;96.40;;;;;;5110858;27;20067;-83
2022/06/18 10:50:57;;;;;;;6.78;3.50;;;26.60;96.40;;;;;;5074622;27;20070;-83
2022/06/18 10:53:33;;;;;;;6.80;2.70;;;26.60;96.60;;;;;;5110216;27;20039;-84
2022/06/18 10:56:03;;;;;;;7.28;2.67;;;26.60;96.70;;;;;;5108764;27;20040;-83
2022/06/18 10:58:29;;;;;;;6.30;2.95;;;26.60;97.00;;;;;;5109325;27;20058;-83
2022/06/18 11:01:03;;;;;;;7.82;2.70;;;26.60;97.00;;;;;;5090561;27;20047;-81
2022/06/18 11:03:31;;;;;;;145.73;10.23;;;26.70;97.10;;;;;;5109345;27;20032;-83
2022/06/18 11:05:58;;;;;;;11.85;3.75;;;26.70;96.90;;;;;;5111919;27;20027;-81
2022/06/18 11:08:32;;;;;;;8.55;2.85;;;26.80;96.90;;;;;;5087486;28;20396;-82
2022/06/18 11:11:01;;;;;;;7.53;2.70;;;27.00;97.10;;;;;;5093277;28;20046;-82
2022/06/18 11:13:48;;;;;;;5.63;3.28;;;27.10;97.60;;;;;;5115588;27;20502;-82
2022/06/18 11:16:26;;;;;;;8.02;2.65;;;27.20;96.10;;;;;;5097510;27;20555;-81
2022/06/18 11:18:54;;;;;;;7.90;3.00;;;27.30;96.60;;;;;;5102318;27;20046;-85
2022/06/18 11:21:23;;;;;;;5.93;2.65;;;27.20;97.00;;;;;;5086091;27;20077;-83
2022/06/18 11:23:57;;;;;;;7.45;2.55;;;27.20;96.60;;;;;;5116708;27;20035;-83
2022/06/18 11:26:24;;;;;;;16.33;3.03;;;27.30;97.10;;;;;;5091518;28;20039;-83
2022/06/18 11:28:54;;;;;;;7.40;2.70;;;27.40;96.90;;;;;;5110970;27;20062;-84
2022/06/18 11:31:31;;;;;;;6.78;2.80;;;27.40;96.40;;;;;;5091714;27;20399;-85
2022/06/18 11:34:04;;;;;;;5.97;2.60;;;27.40;96.10;;;;;;5118881;27;20483;-84
2022/06/18 11:36:46;;;;;;;4.78;2.20;;;27.40;96.10;;;;;;5115423;27;20043;-84
2022/06/18 11:39:24;;;;;;;50.67;5.28;;;27.50;95.70;;;;;;5103486;28;20564;-83
2022/06/18 11:41:51;;;;;;;6.57;2.95;;;27.60;96.20;;;;;;5113559;27;20062;-85
2022/06/18 11:44:46;;;;;;;6.70;2.40;;;27.60;95.70;;;;;;5089355;27;20394;-85
2022/06/18 11:47:36;;;;;;;7.20;2.60;;;27.70;95.80;;;;;;5112195;27;20479;-84
2022/06/18 11:50:14;;;;;;;5.53;2.10;;;27.70;95.80;;;;;;5113154;27;20430;-85
2022/06/18 11:53:02;;;;;;;14.20;3.42;;;27.80;95.60;;;;;;5110672;27;20051;-85
2022/06/18 11:55:33;;;;;;;6.15;2.10;;;27.80;94.30;;;;;;5107731;28;20040;-84
2022/06/18 11:58:14;;;;;;;11.40;2.40;;;27.80;94.30;;;;;;5095928;27;20067;-85
2022/06/18 12:00:50;;;;;;;4.85;2.00;;;27.90;94.30;;;;;;5100489;27;20562;-85
2022/06/18 12:03:48;;;;;;;5.22;1.95;;;28.00;94.30;;;;;;5094469;27;20168;-84
2022/06/18 12:06:39;;;;;;;3.38;1.95;;;28.10;94.40;;;;;;5077360;27;20043;-84
2022/06/18 12:09:07;;;;;;;5.15;1.92;;;28.10;94.00;;;;;;5106274;28;20039;-84
2022/06/18 12:12:15;;;;;;;5.63;2.25;;;28.00;93.90;;;;;;5095537;27;20087;-84
2022/06/18 12:15:00;;;;;;;4.28;2.35;;;28.00;94.90;;;;;;5118861;27;20474;-85
2022/06/18 12:17:33;;;;;;;4.35;2.03;;;28.10;93.70;;;;;;5083829;28;20043;-84
2022/06/18 12:20:22;;;;;;;4.90;1.80;;;28.20;94.70;;;;;;5105874;27;20039;-85
2022/06/18 12:23:06;;;;;;;4.07;1.85;;;28.30;94.20;;;;;;5116276;27;20039;-84
2022/06/18 12:25:41;;;;;;;9.70;2.08;;;28.50;94.70;;;;;;5092583;28;20040;-84
2022/06/18 12:28:10;;;;;;;7.73;2.00;;;28.70;94.50;;;;;;5099251;27;20670;-83
2022/06/18 12:30:54;;;;;;;5.25;2.00;;;28.90;94.70;;;;;;5110316;28;20118;-83
2022/06/18 12:33:38;;;;;;;3.45;1.70;;;29.10;93.70;;;;;;5116577;27;20047;-83
2022/06/18 12:36:21;;;;;;;4.88;1.80;;;29.00;93.70;;;;;;5090913;28;20122;-83
2022/06/18 12:39:03;;;;;;;5.70;2.08;;;29.00;93.70;;;;;;5104679;27;20031;-83
2022/06/18 12:41:40;;;;;;;3.40;1.60;;;29.20;93.30;;;;;;5097945;28;20040;-83
2022/06/18 12:44:51;;;;;;;6.78;2.10;;;29.40;93.00;;;;;;5099762;28;20047;-83
2022/06/18 12:47:34;;;;;;;3.65;2.28;;;29.60;92.90;;;;;;5057762;28;20092;-81
2022/06/18 12:50:06;;;;;;;4.90;2.05;;;29.80;93.10;;;;;;5103198;28;20042;-82
2022/06/18 12:52:49;;;;;;;4.30;2.03;;;30.00;92.30;;;;;;5096126;28;20038;-81
2022/06/18 12:55:29;;;;;;;5.05;1.52;;;30.30;91.90;;;;;;5110519;28;20047;-81
2022/06/18 12:58:09;;;;;;;5.28;2.03;;;30.40;91.60;;;;;;5116391;28;20043;-83
2022/06/18 13:00:52;;;;;;;9.65;2.90;;;30.50;91.40;;;;;;5109922;28;20039;-83
2022/06/18 13:03:43;;;;;;;5.50;1.95;;;30.30;91.20;;;;;;5094920;28;20112;-83
2022/06/18 13:06:34;;;;;;;4.50;1.90;;;30.20;91.60;;;;;;5091431;28;20035;-83
2022/06/18 13:09:09;;;;;;;4.25;1.83;;;30.10;91.30;;;;;;5114169;28;20031;-83
2022/06/18 13:12:10;;;;;;;4.32;2.13;;;30.00;91.90;;;;;;5088820;28;20089;-83
2022/06/18 13:15:12;;;;;;;6.60;2.00;;;29.90;91.30;;;;;;5118372;28;20051;-83
2022/06/18 13:17:49;;;;;;;3.33;1.38;;;29.70;92.00;;;;;;5056610;28;20106;-83
2022/06/18 13:20:31;;;;;;;4.07;1.75;;;29.60;91.80;;;;;;5114245;28;20043;-82